Time;durP1;ratioP1;P1;durP2;ratioP2;P2;SDS_P1;SDS_P2;PMS_P1;PMS_P2;Temp;Humidity;BMP_temperature;BMP_pressure;BME280_temperature;BME280_humidity;BME280_pressure;Samples;Min_cycle;Max_cycle;Signal;HPM_P1;HPM_P2
2022/05/03 00:02:02;;;;;;;7.53;5.60;;;3.60;99.90;;;;;;5054561;28;20093;-75
2022/05/03 00:04:42;;;;;;;6.72;5.18;;;3.50;99.90;;;;;;5066899;28;20048;-75
2022/05/03 00:07:26;;;;;;;7.55;5.07;;;3.50;99.90;;;;;;5053937;28;20367;-75
2022/05/03 00:10:11;;;;;;;6.97;5.22;;;3.50;99.90;;;;;;5050885;28;20333;-75
2022/05/03 00:12:45;;;;;;;6.72;4.50;;;3.50;99.90;;;;;;5065865;28;20044;-75
2022/05/03 00:15:19;;;;;;;8.38;5.68;;;3.50;99.90;;;;;;5060321;28;20032;-75
2022/05/03 00:17:48;;;;;;;8.35;6.18;;;3.40;99.90;;;;;;5070678;28;20036;-74
2022/05/03 00:20:17;;;;;;;8.65;6.10;;;3.40;99.90;;;;;;5071154;28;20394;-74
2022/05/03 00:22:43;;;;;;;8.05;5.63;;;3.40;99.90;;;;;;5054223;28;20075;-75
2022/05/03 00:25:14;;;;;;;10.10;5.90;;;3.40;99.90;;;;;;5063165;28;20227;-75
2022/05/03 00:27:41;;;;;;;7.43;5.45;;;3.40;99.90;;;;;;5049740;28;20390;-74
2022/05/03 00:30:08;;;;;;;7.68;5.13;;;3.40;99.90;;;;;;5051008;28;20145;-75
2022/05/03 00:32:34;;;;;;;7.57;5.20;;;3.40;99.90;;;;;;5060379;28;20107;-74
2022/05/03 00:35:04;;;;;;;7.55;5.70;;;3.30;99.90;;;;;;5053873;28;20487;-74
2022/05/03 00:37:30;;;;;;;7.57;5.85;;;3.30;99.90;;;;;;5065624;28;20040;-74
2022/05/03 00:39:55;;;;;;;8.15;5.70;;;3.20;99.90;;;;;;5052533;28;20040;-74
2022/05/03 00:42:28;;;;;;;9.88;6.20;;;3.20;99.90;;;;;;5052076;28;20083;-74
2022/05/03 00:45:14;;;;;;;8.07;6.05;;;3.20;99.90;;;;;;5069798;28;20507;-74
2022/05/03 00:47:55;;;;;;;8.98;6.47;;;3.20;99.90;;;;;;5070136;28;20499;-74
2022/05/03 00:50:36;;;;;;;7.88;5.45;;;3.20;99.90;;;;;;5052890;28;20052;-75
2022/05/03 00:53:32;;;;;;;9.32;6.38;;;3.10;99.90;;;;;;5053673;28;20032;-75
2022/05/03 00:56:28;;;;;;;8.05;6.43;;;3.10;99.90;;;;;;5052380;28;20045;-75
2022/05/03 00:59:11;;;;;;;9.07;6.70;;;3.10;99.90;;;;;;5051378;28;20490;-75
2022/05/03 01:02:03;;;;;;;7.90;6.03;;;3.10;99.90;;;;;;5070279;28;20127;-75
2022/05/03 01:04:36;;;;;;;8.35;6.30;;;3.00;99.90;;;;;;5053641;28;20063;-74
2022/05/03 01:07:24;;;;;;;;;;;3.00;99.90;;;;;;5069460;28;20040;-74
2022/05/03 01:10:09;;;;;;;7.18;5.68;;;3.00;99.90;;;;;;5044932;28;20493;-74
2022/05/03 01:13:10;;;;;;;9.50;7.05;;;3.00;99.90;;;;;;5070249;28;20491;-74
2022/05/03 01:15:44;;;;;;;9.60;6.88;;;3.00;99.90;;;;;;5069960;28;20119;-74
2022/05/03 01:18:29;;;;;;;8.55;6.05;;;3.00;99.90;;;;;;5050947;28;20041;-74
2022/05/03 01:21:18;;;;;;;8.05;5.88;;;2.90;99.90;;;;;;5069366;28;20051;-74
2022/05/03 01:23:58;;;;;;;8.68;6.68;;;2.90;99.90;;;;;;5053457;28;20067;-74
2022/05/03 01:26:49;;;;;;;10.88;7.93;;;2.80;99.90;;;;;;5051916;28;20052;-74
2022/05/03 01:29:28;;;;;;;11.90;8.40;;;2.80;99.90;;;;;;5052663;28;20039;-74
2022/05/03 01:32:12;;;;;;;8.05;6.60;;;2.80;99.90;;;;;;5051789;28;20043;-74
2022/05/03 01:34:45;;;;;;;15.82;10.07;;;2.80;99.90;;;;;;5047757;28;20041;-75
2022/05/03 01:37:30;;;;;;;12.23;8.98;;;2.80;99.90;;;;;;5053369;28;20422;-75
2022/05/03 01:40:05;;;;;;;11.57;7.80;;;2.80;99.90;;;;;;5069765;28;20058;-75
2022/05/03 01:42:58;;;;;;;11.70;8.52;;;2.80;99.90;;;;;;5069721;28;20078;-75
2022/05/03 01:45:33;;;;;;;12.68;9.05;;;2.70;99.90;;;;;;5061439;28;20113;-75
2022/05/03 01:51:55;;;;;;;11.15;8.20;;;2.70;99.90;;;;;;5050838;28;20493;-74
2022/05/03 01:54:47;;;;;;;12.43;9.25;;;2.70;99.90;;;;;;5053057;28;20520;-74
2022/05/03 01:57:27;;;;;;;11.85;9.32;;;2.70;99.90;;;;;;5057913;28;20048;-74
2022/05/03 02:00:11;;;;;;;9.48;7.72;;;2.70;99.90;;;;;;5050081;28;20418;-74
2022/05/03 02:02:56;;;;;;;11.00;8.15;;;2.60;99.90;;;;;;5055686;28;20407;-75
2022/05/03 02:05:52;;;;;;;11.48;8.40;;;2.60;99.90;;;;;;5069784;28;20059;-75
2022/05/03 02:08:21;;;;;;;10.55;7.22;;;2.50;99.90;;;;;;5070523;28;20135;-75
2022/05/03 02:11:28;;;;;;;11.68;7.75;;;2.50;99.90;;;;;;5070491;28;20032;-75
2022/05/03 02:17:13;;;;;;;10.52;8.50;;;2.40;99.90;;;;;;5070581;28;20040;-75
2022/05/03 02:20:08;;;;;;;13.50;8.93;;;2.40;99.90;;;;;;5055157;28;20040;-75
2022/05/03 02:22:59;;;;;;;11.80;8.60;;;2.40;99.90;;;;;;5073094;28;20040;-75
2022/05/03 02:25:35;;;;;;;12.25;9.25;;;2.40;99.90;;;;;;5052259;28;20071;-75
2022/05/03 02:28:25;;;;;;;13.07;9.70;;;2.30;99.90;;;;;;5056425;28;20489;-75
2022/05/03 02:30:52;;;;;;;13.93;10.20;;;2.20;99.90;;;;;;5052825;28;20060;-74
2022/05/03 02:33:28;;;;;;;15.63;11.27;;;2.20;99.90;;;;;;5073098;28;20119;-74
2022/05/03 02:36:04;;;;;;;15.23;11.27;;;2.20;99.90;;;;;;5073108;28;20051;-74
2022/05/03 02:39:12;;;;;;;14.82;10.63;;;2.20;99.90;;;;;;5047537;28;20143;-74
2022/05/03 02:41:39;;;;;;;13.30;10.48;;;2.10;99.90;;;;;;5055899;28;20042;-74
2022/05/03 02:44:05;;;;;;;13.20;10.60;;;2.10;99.90;;;;;;5053863;28;20068;-74
2022/05/03 02:46:54;;;;;;;14.13;10.85;;;2.10;99.90;;;;;;5051651;28;20036;-74
2022/05/03 02:49:35;;;;;;;13.30;10.23;;;2.10;99.90;;;;;;5052130;28;20072;-74
2022/05/03 02:52:21;;;;;;;15.75;11.55;;;2.10;99.90;;;;;;5052458;28;20047;-74
2022/05/03 02:55:41;;;;;;;16.02;11.90;;;2.00;99.90;;;;;;5051633;28;20048;-74
2022/05/03 02:58:33;;;;;;;13.82;10.85;;;2.00;99.90;;;;;;5020210;28;20506;-74
2022/05/03 03:04:26;;;;;;;14.00;10.45;;;1.90;99.90;;;;;;5052432;28;20465;-75
2022/05/03 03:06:55;;;;;;;16.67;12.10;;;1.90;99.90;;;;;;5055117;28;20102;-74
2022/05/03 03:09:58;;;;;;;14.15;10.88;;;1.90;99.90;;;;;;5055404;28;20451;-74
2022/05/03 03:12:44;;;;;;;14.55;11.23;;;1.90;99.90;;;;;;5055781;28;20072;-74
2022/05/03 03:15:18;;;;;;;14.20;11.07;;;1.90;99.90;;;;;;5048487;28;20040;-74
2022/05/03 03:17:50;;;;;;;16.13;12.90;;;1.90;99.90;;;;;;5055040;28;20148;-74
2022/05/03 03:20:25;;;;;;;14.25;11.05;;;1.90;99.90;;;;;;5045574;28;20040;-74
2022/05/03 03:22:51;;;;;;;15.68;11.82;;;1.90;99.90;;;;;;5052509;28;20079;-75
2022/05/03 03:25:26;;;;;;;16.10;12.75;;;1.90;99.90;;;;;;5070843;28;20041;-74
2022/05/03 03:27:56;;;;;;;14.52;11.48;;;1.90;99.90;;;;;;5055018;28;20041;-74
2022/05/03 03:30:24;;;;;;;14.88;11.15;;;1.80;99.90;;;;;;5053645;28;20041;-74
2022/05/03 03:32:57;;;;;;;13.43;10.65;;;1.80;99.90;;;;;;5051377;28;20040;-74
2022/05/03 03:35:25;;;;;;;14.98;11.80;;;1.80;99.90;;;;;;5035674;28;20033;-74
2022/05/03 03:37:57;;;;;;;12.68;10.93;;;1.80;99.90;;;;;;5034797;28;20174;-74
2022/05/03 03:40:26;;;;;;;15.43;11.35;;;1.80;99.90;;;;;;5065975;28;20048;-74
2022/05/03 03:42:55;;;;;;;15.38;11.70;;;1.80;99.90;;;;;;5069800;28;20132;-75
2022/05/03 03:45:23;;;;;;;14.82;10.73;;;1.70;99.90;;;;;;5045006;28;20132;-75
2022/05/03 03:47:48;;;;;;;16.10;11.88;;;1.80;99.90;;;;;;5061446;28;20052;-74
2022/05/03 03:50:15;;;;;;;16.70;12.63;;;1.70;99.90;;;;;;5051286;28;20081;-74
2022/05/03 03:52:47;;;;;;;16.23;12.18;;;1.80;99.90;;;;;;5043298;28;20108;-74
2022/05/03 03:55:13;;;;;;;;;;;1.80;99.90;;;;;;5068428;28;20086;-74
2022/05/03 03:57:40;;;;;;;17.48;11.95;;;1.80;99.90;;;;;;5046899;28;19923;-74
2022/05/03 04:00:08;;;;;;;14.68;11.77;;;1.80;99.90;;;;;;5054509;28;20040;-74
2022/05/03 04:02:35;;;;;;;15.95;12.55;;;1.80;99.90;;;;;;5054931;28;20596;-74
2022/05/03 04:05:01;;;;;;;15.77;12.90;;;1.70;99.90;;;;;;5054694;28;20033;-74
2022/05/03 04:07:27;;;;;;;14.93;11.57;;;1.70;99.90;;;;;;5045648;28;20056;-74
2022/05/03 04:09:54;;;;;;;14.15;10.85;;;1.70;99.90;;;;;;5069133;28;20131;-74
2022/05/03 04:12:20;;;;;;;15.13;12.05;;;1.70;99.90;;;;;;5054029;28;20032;-74
2022/05/03 04:14:47;;;;;;;15.88;12.10;;;1.70;99.90;;;;;;5051917;28;20032;-74
2022/05/03 04:17:13;;;;;;;17.17;12.35;;;1.80;99.90;;;;;;5047114;28;20067;-74
2022/05/03 04:19:39;;;;;;;15.10;11.82;;;1.70;99.90;;;;;;5066325;28;20044;-75
2022/05/03 04:22:22;;;;;;;14.02;10.50;;;1.70;99.90;;;;;;5052609;28;20398;-74
2022/05/03 04:24:48;;;;;;;13.85;11.27;;;1.70;99.90;;;;;;5054154;28;20041;-74
2022/05/03 04:27:15;;;;;;;15.10;11.52;;;1.80;99.90;;;;;;5054026;28;20384;-74
2022/05/03 04:29:41;;;;;;;14.13;10.68;;;1.80;99.90;;;;;;5054088;28;20469;-74
2022/05/03 04:32:07;;;;;;;13.60;11.52;;;1.90;99.90;;;;;;5049654;28;20120;-74
2022/05/03 04:34:33;;;;;;;15.23;11.85;;;1.90;99.90;;;;;;5044000;28;20033;-74
2022/05/03 04:37:02;;;;;;;17.15;11.88;;;2.00;99.90;;;;;;5054187;28;20111;-75
2022/05/03 04:39:28;;;;;;;14.30;11.80;;;2.00;99.90;;;;;;5070375;28;20140;-74
2022/05/03 04:41:56;;;;;;;14.18;12.00;;;2.00;99.90;;;;;;5070314;28;20047;-74
2022/05/03 04:44:24;;;;;;;15.57;11.85;;;2.00;99.90;;;;;;5051512;28;20032;-74
2022/05/03 04:46:50;;;;;;;13.85;11.80;;;2.10;99.90;;;;;;5063230;28;20116;-74
2022/05/03 04:49:16;;;;;;;13.18;10.90;;;2.10;99.90;;;;;;5045291;28;20211;-75
2022/05/03 04:51:41;;;;;;;13.73;9.85;;;2.20;99.90;;;;;;5054024;28;20467;-74
2022/05/03 04:54:08;;;;;;;15.23;11.73;;;2.20;99.90;;;;;;5050204;28;20119;-74
2022/05/03 04:56:35;;;;;;;15.10;11.23;;;2.30;99.90;;;;;;5049011;28;20127;-75
2022/05/03 04:59:02;;;;;;;14.70;11.82;;;2.30;99.90;;;;;;5042034;28;20048;-74
2022/05/03 05:01:31;;;;;;;13.25;11.25;;;2.40;99.90;;;;;;5042116;28;20037;-75
2022/05/03 05:03:57;;;;;;;14.45;11.93;;;2.60;99.90;;;;;;5053535;28;20127;-75
2022/05/03 05:06:22;;;;;;;12.00;9.80;;;2.60;99.90;;;;;;5053734;28;20075;-75
2022/05/03 05:08:48;;;;;;;11.38;10.18;;;2.70;99.90;;;;;;5049318;28;20448;-75
2022/05/03 05:11:17;;;;;;;16.15;12.80;;;2.90;99.90;;;;;;5049764;28;20128;-75
2022/05/03 05:13:46;;;;;;;16.70;13.18;;;3.00;99.90;;;;;;5054558;28;20029;-75
2022/05/03 05:16:14;;;;;;;16.40;13.30;;;3.10;99.90;;;;;;5053667;28;20036;-74
2022/05/03 05:18:40;;;;;;;15.10;12.32;;;3.30;99.90;;;;;;5051022;28;20068;-74
2022/05/03 05:21:06;;;;;;;17.65;12.95;;;3.40;99.90;;;;;;5053014;28;20514;-74
2022/05/03 05:23:32;;;;;;;14.90;12.30;;;3.60;99.90;;;;;;5053180;28;20044;-74
2022/05/03 05:25:58;;;;;;;13.95;11.50;;;3.80;99.90;;;;;;5068780;28;20040;-75
2022/05/03 05:28:24;;;;;;;14.63;12.00;;;3.90;99.90;;;;;;5047841;28;20491;-75
2022/05/03 05:30:51;;;;;;;12.98;11.23;;;4.00;99.90;;;;;;5068063;28;20043;-74
2022/05/03 05:33:18;;;;;;;13.90;11.60;;;4.10;99.90;;;;;;5069564;28;20045;-75
2022/05/03 05:35:53;;;;;;;13.15;11.70;;;4.20;99.90;;;;;;5067597;28;20507;-75
2022/05/03 05:38:19;;;;;;;14.45;11.57;;;4.30;99.90;;;;;;5072103;28;20040;-75
2022/05/03 05:40:46;;;;;;;11.88;10.60;;;4.40;99.90;;;;;;5046823;28;20041;-75
2022/05/03 05:43:13;;;;;;;14.40;11.75;;;4.50;99.90;;;;;;5066478;28;20037;-75
2022/05/03 05:45:40;;;;;;;13.38;11.88;;;4.70;99.90;;;;;;5034341;28;20090;-75
2022/05/03 05:48:08;;;;;;;16.77;13.82;;;4.70;99.90;;;;;;5037061;28;20041;-75
2022/05/03 05:50:35;;;;;;;16.92;14.93;;;4.80;99.90;;;;;;5049926;28;20037;-75
2022/05/03 05:55:47;;;;;;;22.05;17.25;;;5.10;99.90;;;;;;5071465;28;20041;-75
2022/05/03 05:58:16;;;;;;;22.90;18.30;;;5.30;99.90;;;;;;5056896;28;20457;-75
2022/05/03 06:00:42;;;;;;;22.77;19.33;;;5.40;99.90;;;;;;5072383;28;20036;-75
2022/05/03 06:03:07;;;;;;;26.95;22.55;;;5.60;99.90;;;;;;5051440;28;20552;-75
2022/05/03 06:05:33;;;;;;;27.98;24.25;;;5.80;99.90;;;;;;5059146;28;21453;-75
2022/05/03 06:08:02;;;;;;;29.70;23.95;;;5.90;99.90;;;;;;5055208;28;20079;-75
2022/05/03 06:10:28;;;;;;;29.23;22.90;;;6.20;99.90;;;;;;5056482;28;20090;-75
2022/05/03 06:12:54;;;;;;;27.27;23.55;;;6.40;99.90;;;;;;5053080;28;20475;-75
2022/05/03 06:15:20;;;;;;;28.10;23.65;;;6.80;99.90;;;;;;5055412;28;20570;-75
2022/05/03 06:17:48;;;;;;;29.27;23.85;;;7.20;99.90;;;;;;5053610;28;20124;-75
2022/05/03 06:20:19;;;;;;;24.58;20.73;;;7.50;99.90;;;;;;5049125;28;20036;-76
2022/05/03 06:22:51;;;;;;;30.13;23.25;;;7.90;99.90;;;;;;5051198;28;20491;-76
2022/05/03 06:25:35;;;;;;;29.55;23.48;;;8.30;99.90;;;;;;5053479;28;20036;-77
2022/05/03 06:28:04;;;;;;;24.70;20.85;;;8.80;99.90;;;;;;5053651;28;20175;-75
2022/05/03 06:30:43;;;;;;;25.10;21.63;;;9.20;99.90;;;;;;5051369;28;20392;-75
2022/05/03 06:33:11;;;;;;;;;;;9.50;99.90;;;;;;5050231;28;20043;-75
2022/05/03 06:35:42;;;;;;;28.95;23.40;;;9.70;99.90;;;;;;5050555;28;19973;-75
2022/05/03 06:38:22;;;;;;;27.63;24.63;;;9.80;99.90;;;;;;5061298;28;20406;-75
2022/05/03 06:41:01;;;;;;;31.95;23.65;;;10.00;99.90;;;;;;5054137;28;20040;-75
2022/05/03 06:43:39;;;;;;;32.90;25.55;;;10.10;99.90;;;;;;5066026;28;20483;-75
2022/05/03 06:46:21;;;;;;;33.33;26.23;;;10.20;99.90;;;;;;5072560;28;20264;-75
2022/05/03 06:48:52;;;;;;;34.78;26.95;;;10.20;99.90;;;;;;5054578;28;20139;-75
2022/05/03 06:52:03;;;;;;;29.60;25.58;;;10.30;99.90;;;;;;5073164;22;20040;-74
2022/05/03 06:54:57;;;;;;;31.10;26.02;;;10.30;99.90;;;;;;5038382;28;20535;-75
2022/05/03 06:57:26;;;;;;;30.88;26.00;;;10.40;99.90;;;;;;5032438;28;20037;-76
2022/05/03 06:59:54;;;;;;;32.20;26.55;;;10.50;99.90;;;;;;5028328;28;20041;-75
2022/05/03 07:02:20;;;;;;;32.97;26.45;;;10.50;99.90;;;;;;5030356;28;20057;-76
2022/05/03 07:04:46;;;;;;;32.45;26.40;;;10.60;99.90;;;;;;5062273;22;20033;-74
2022/05/03 07:07:13;;;;;;;28.90;24.77;;;10.60;99.90;;;;;;5031736;28;20098;-76
2022/05/03 07:09:39;;;;;;;32.58;25.73;;;10.70;99.90;;;;;;5050868;28;20059;-76
2022/05/03 07:12:06;;;;;;;30.38;25.13;;;10.70;99.90;;;;;;5035813;28;20123;-76
2022/05/03 07:14:32;;;;;;;34.70;25.77;;;10.80;99.90;;;;;;5029015;28;20087;-76
2022/05/03 07:16:57;;;;;;;30.95;24.02;;;10.90;99.90;;;;;;5015910;28;20041;-76
2022/05/03 07:24:51;;;;;;;29.92;24.08;;;10.80;99.90;;;;;;5043611;28;20080;-76
2022/05/03 07:27:16;;;;;;;35.28;26.08;;;10.80;99.90;;;;;;5043416;28;20072;-76
2022/05/03 07:29:42;;;;;;;43.58;28.83;;;10.90;99.90;;;;;;5043626;28;20044;-76
2022/05/03 07:32:07;;;;;;;52.78;32.08;;;10.90;99.90;;;;;;5028689;28;20168;-77
2022/05/03 07:34:33;;;;;;;65.40;35.13;;;11.00;99.90;;;;;;5030762;28;20120;-76
2022/05/03 07:36:58;;;;;;;57.85;33.60;;;11.10;99.90;;;;;;5032262;28;20029;-76
2022/05/03 07:39:24;;;;;;;58.80;34.53;;;11.10;99.90;;;;;;5051430;28;20041;-76
2022/05/03 07:41:49;;;;;;;73.00;34.97;;;11.10;99.90;;;;;;5039632;28;20037;-75
2022/05/03 07:44:15;;;;;;;63.85;32.25;;;11.10;99.90;;;;;;5030771;28;20132;-76
2022/05/03 07:46:41;;;;;;;70.10;34.72;;;11.20;99.90;;;;;;5015351;28;20104;-76
2022/05/03 07:49:09;;;;;;;66.65;33.72;;;11.30;99.90;;;;;;5011307;28;21587;-76
2022/05/03 07:51:34;;;;;;;71.35;33.92;;;11.40;99.90;;;;;;5006674;28;20387;-75
2022/05/03 07:54:00;;;;;;;75.65;35.63;;;11.40;99.90;;;;;;5031202;28;20029;-76
2022/05/03 07:56:26;;;;;;;83.18;36.80;;;11.50;99.90;;;;;;5031379;28;20042;-76
2022/05/03 07:58:51;;;;;;;77.82;35.95;;;11.50;99.90;;;;;;5029909;28;20438;-76
2022/05/03 08:01:17;;;;;;;78.88;36.15;;;11.60;99.90;;;;;;5029309;28;20083;-76
2022/05/03 08:03:42;;;;;;;81.47;36.35;;;11.70;99.90;;;;;;5029883;28;20030;-75
2022/05/03 08:06:08;;;;;;;75.03;35.58;;;11.70;99.90;;;;;;5027877;28;20091;-75
2022/05/03 08:08:34;;;;;;;79.47;35.22;;;11.70;99.90;;;;;;5030646;28;20090;-76
2022/05/03 08:10:59;;;;;;;75.88;33.55;;;11.70;99.90;;;;;;5014699;28;20041;-76
2022/05/03 08:13:25;;;;;;;70.18;33.63;;;11.70;99.90;;;;;;5029881;28;20069;-76
2022/05/03 08:15:50;;;;;;;70.30;32.80;;;11.60;99.90;;;;;;5029546;28;20067;-75
2022/05/03 08:18:16;;;;;;;66.50;33.05;;;11.60;99.90;;;;;;5026325;28;20038;-75
2022/05/03 08:20:41;;;;;;;72.85;34.13;;;11.60;99.90;;;;;;5027899;28;20045;-75
2022/05/03 08:23:07;;;;;;;78.75;34.47;;;11.60;99.90;;;;;;5024121;28;20135;-75
2022/05/03 08:25:33;;;;;;;72.30;34.55;;;11.60;99.90;;;;;;5030997;28;20045;-76
2022/05/03 08:27:58;;;;;;;67.10;32.03;;;11.60;99.90;;;;;;5029470;28;20040;-76
2022/05/03 08:30:24;;;;;;;69.13;32.65;;;11.60;99.90;;;;;;5025582;28;20033;-75
2022/05/03 08:32:50;;;;;;;66.65;33.55;;;11.50;99.90;;;;;;5009160;28;20535;-75
2022/05/03 08:35:16;;;;;;;62.53;32.47;;;11.40;99.90;;;;;;5033011;28;20044;-75
2022/05/03 08:43:29;;;;;;;41.75;25.67;;;11.30;99.90;;;;;;4960902;28;20425;-74
2022/05/03 08:45:56;;;;;;;42.78;24.67;;;11.30;99.90;;;;;;5014178;28;20136;-75
2022/05/03 08:48:29;;;;;;;43.15;24.77;;;11.20;99.90;;;;;;5030627;28;20124;-72
2022/05/03 08:50:55;;;;;;;44.13;24.70;;;11.10;99.90;;;;;;5038953;28;20419;-75
2022/05/03 08:53:21;;;;;;;35.67;22.00;;;11.10;99.90;;;;;;5010906;28;20038;-74
2022/05/03 08:55:49;;;;;;;34.05;20.65;;;11.10;99.90;;;;;;5010433;28;20123;-74
2022/05/03 08:58:17;;;;;;;35.17;20.63;;;11.10;99.90;;;;;;5029106;28;20433;-74
2022/05/03 09:00:43;;;;;;;29.67;19.23;;;11.10;99.90;;;;;;5039521;28;20048;-75
2022/05/03 09:03:08;;;;;;;31.20;17.73;;;11.10;99.90;;;;;;5020471;28;20041;-76
2022/05/03 09:05:34;;;;;;;27.83;18.83;;;11.10;99.90;;;;;;5026304;28;20057;-74
2022/05/03 09:08:01;;;;;;;30.50;17.35;;;11.10;99.90;;;;;;5030032;28;20045;-74
2022/05/03 09:10:32;;;;;;;26.88;18.75;;;11.00;99.90;;;;;;5032049;28;20036;-75
2022/05/03 09:13:20;;;;;;;25.40;17.40;;;11.10;99.90;;;;;;5037443;28;20037;-74
2022/05/03 09:15:50;;;;;;;27.40;17.40;;;11.20;99.90;;;;;;5013978;28;20080;-75
2022/05/03 09:18:20;;;;;;;22.48;15.88;;;11.30;99.90;;;;;;5011648;28;20506;-75
2022/05/03 09:23:51;;;;;;;24.42;15.30;;;11.50;99.90;;;;;;5030664;28;20557;-75
2022/05/03 09:26:22;;;;;;;24.20;16.08;;;11.50;99.90;;;;;;5035803;28;20076;-74
2022/05/03 09:28:50;;;;;;;23.55;15.95;;;11.70;99.90;;;;;;5029999;28;20120;-74
2022/05/03 09:31:39;;;;;;;22.20;15.48;;;11.70;99.90;;;;;;5030682;28;20029;-75
2022/05/03 09:34:19;;;;;;;21.55;14.18;;;11.90;99.90;;;;;;5007538;28;20128;-74
2022/05/03 09:36:58;;;;;;;18.52;14.38;;;12.00;99.90;;;;;;5042191;28;20057;-75
2022/05/03 09:39:30;;;;;;;19.60;13.23;;;11.90;99.90;;;;;;5027199;28;20504;-77
2022/05/03 09:42:06;;;;;;;20.77;13.57;;;11.90;99.90;;;;;;5032814;28;20562;-79
2022/05/03 09:44:36;;;;;;;18.25;11.80;;;11.80;99.90;;;;;;5032811;28;20046;-76
2022/05/03 09:47:11;;;;;;;20.30;11.48;;;11.80;99.90;;;;;;5037133;28;20037;-76
2022/05/03 09:49:41;;;;;;;19.70;12.15;;;11.70;99.90;;;;;;5049828;28;20049;-76
2022/05/03 09:52:09;;;;;;;17.20;10.85;;;11.60;99.90;;;;;;5053521;28;20064;-76
2022/05/03 09:54:51;;;;;;;17.00;11.65;;;11.60;99.90;;;;;;5033515;28;20496;-76
2022/05/03 09:57:24;;;;;;;16.90;10.13;;;11.40;99.90;;;;;;5023534;28;20041;-76
2022/05/03 09:59:52;;;;;;;15.50;9.18;;;11.40;99.90;;;;;;5033346;28;20049;-76
2022/05/03 10:02:20;;;;;;;15.07;8.50;;;11.40;99.90;;;;;;5018603;28;20036;-78
2022/05/03 10:04:46;;;;;;;14.73;8.48;;;11.40;99.90;;;;;;5026360;28;20041;-75
2022/05/03 10:07:12;;;;;;;12.60;8.00;;;11.30;99.90;;;;;;5029234;28;20037;-76
2022/05/03 10:09:40;;;;;;;12.80;7.60;;;11.30;99.90;;;;;;5032072;28;20067;-76
2022/05/03 10:12:08;;;;;;;15.55;8.10;;;11.40;99.90;;;;;;5045665;28;20033;-76
2022/05/03 10:14:35;;;;;;;13.07;8.18;;;11.40;99.90;;;;;;5038274;28;20515;-76
2022/05/03 10:22:37;;;;;;;12.32;7.50;;;11.30;99.90;;;;;;5033291;28;20132;-76
2022/05/03 10:25:05;;;;;;;13.75;8.57;;;11.30;99.90;;;;;;5033256;28;20049;-76
2022/05/03 10:27:32;;;;;;;13.30;8.27;;;11.30;99.90;;;;;;5031917;28;20041;-76
2022/05/03 10:30:14;;;;;;;15.30;8.05;;;11.30;99.90;;;;;;5016548;28;20091;-76
2022/05/03 10:32:39;;;;;;;15.52;8.70;;;11.40;99.90;;;;;;5029028;28;20069;-74
2022/05/03 10:35:32;;;;;;;15.25;8.27;;;11.30;99.90;;;;;;5029985;28;20131;-76
2022/05/03 10:37:57;;;;;;;15.90;7.53;;;11.30;99.90;;;;;;5029473;28;20033;-76
2022/05/03 10:40:38;;;;;;;15.45;7.85;;;11.30;99.90;;;;;;5032363;28;20051;-76
2022/05/03 10:43:10;;;;;;;16.95;8.07;;;11.30;99.90;;;;;;5029913;28;20104;-76
2022/05/03 10:45:58;;;;;;;15.18;8.32;;;11.30;99.90;;;;;;5014920;28;20128;-75
2022/05/03 10:48:26;;;;;;;15.90;8.50;;;11.30;99.90;;;;;;5030238;28;20489;-76
2022/05/03 10:50:57;;;;;;;18.70;8.50;;;11.30;99.90;;;;;;5013768;28;20049;-79
2022/05/03 10:53:25;;;;;;;17.80;8.63;;;11.30;99.90;;;;;;5019753;28;20033;-78
2022/05/03 10:56:12;;;;;;;21.73;8.20;;;11.30;99.90;;;;;;5042833;28;20151;-78
2022/05/03 10:58:46;;;;;;;19.55;8.73;;;11.40;99.90;;;;;;5030428;28;20049;-77
2022/05/03 11:01:14;;;;;;;22.52;8.60;;;11.40;99.90;;;;;;5037419;28;20628;-78
2022/05/03 11:03:49;;;;;;;17.05;8.40;;;11.40;99.90;;;;;;5044941;28;20049;-78
2022/05/03 11:06:25;;;;;;;18.23;8.93;;;11.50;99.90;;;;;;5027763;28;20049;-78
2022/05/03 11:11:50;;;;;;;20.20;8.85;;;11.70;99.90;;;;;;5033107;28;20049;-78
2022/05/03 11:14:16;;;;;;;18.05;7.95;;;11.70;99.90;;;;;;5034621;28;20426;-78
2022/05/03 11:16:42;;;;;;;18.15;7.93;;;11.70;99.90;;;;;;5021209;28;20175;-78
2022/05/03 11:19:10;;;;;;;14.70;8.43;;;11.50;99.90;;;;;;5017689;28;20044;-78
2022/05/03 11:21:36;;;;;;;18.25;8.07;;;11.50;99.90;;;;;;5035454;28;20041;-78
2022/05/03 11:24:01;;;;;;;16.33;7.97;;;11.50;99.90;;;;;;5035641;28;20056;-78
2022/05/03 11:26:28;;;;;;;14.48;7.75;;;11.50;99.90;;;;;;5030814;28;20126;-78
2022/05/03 11:28:57;;;;;;;18.23;7.60;;;11.50;99.90;;;;;;5039547;28;20041;-79
2022/05/03 11:31:25;;;;;;;14.40;7.30;;;11.50;99.90;;;;;;5036272;28;20038;-78
2022/05/03 11:33:58;;;;;;;18.10;7.97;;;11.50;99.90;;;;;;5028053;28;20120;-77
2022/05/03 11:36:28;;;;;;;17.52;7.35;;;11.50;99.90;;;;;;5038124;28;20098;-78
2022/05/03 11:38:55;;;;;;;15.18;7.25;;;11.50;99.90;;;;;;5022923;28;20038;-77
2022/05/03 11:41:26;;;;;;;12.07;6.35;;;11.60;99.90;;;;;;5013336;28;20045;-77
2022/05/03 11:43:52;;;;;;;20.05;7.38;;;11.70;99.90;;;;;;5020816;28;20044;-77
2022/05/03 11:46:18;;;;;;;15.38;7.45;;;11.70;99.90;;;;;;5028438;28;20407;-77
2022/05/03 11:48:50;;;;;;;19.98;7.55;;;11.80;99.90;;;;;;5029878;28;20041;-77
2022/05/03 11:56:48;;;;;;;12.55;6.78;;;12.20;99.90;;;;;;5025533;28;20052;-75
2022/05/03 11:59:14;;;;;;;15.77;7.47;;;12.20;99.90;;;;;;5028878;28;20052;-76
2022/05/03 12:01:40;;;;;;;16.75;6.53;;;12.30;99.90;;;;;;5031397;28;20132;-75
2022/05/03 12:04:07;;;;;;;16.48;6.30;;;12.50;99.90;;;;;;5031329;28;20041;-75
2022/05/03 12:06:44;;;;;;;10.80;5.55;;;12.70;99.90;;;;;;5014995;28;20048;-76
2022/05/03 12:09:17;;;;;;;13.05;6.55;;;12.90;99.90;;;;;;5033593;28;20477;-76
2022/05/03 12:14:42;;;;;;;18.42;5.80;;;13.30;99.90;;;;;;5050995;28;20055;-75
2022/05/03 12:17:08;;;;;;;10.60;5.43;;;13.60;99.90;;;;;;5051118;28;20052;-76
2022/05/03 12:19:38;;;;;;;13.57;6.40;;;13.90;99.90;;;;;;5050824;28;20064;-76
2022/05/03 12:22:09;;;;;;;13.85;4.95;;;14.00;99.90;;;;;;5038445;28;20120;-76
2022/05/03 12:24:35;;;;;;;13.80;5.95;;;14.00;99.90;;;;;;5033271;28;20081;-76
2022/05/03 12:27:14;;;;;;;10.52;5.25;;;14.00;99.90;;;;;;5012025;28;20037;-77
2022/05/03 12:29:44;;;;;;;12.98;5.30;;;13.90;99.90;;;;;;5008588;28;20045;-77
2022/05/03 12:32:18;;;;;;;14.55;5.03;;;13.90;99.90;;;;;;5026313;28;20225;-77
2022/05/03 12:34:58;;;;;;;11.90;4.70;;;13.90;99.90;;;;;;5029063;28;20041;-77
2022/05/03 12:37:25;;;;;;;13.77;4.68;;;13.90;99.90;;;;;;5012092;28;20079;-78
2022/05/03 12:39:50;;;;;;;13.15;4.90;;;14.00;99.90;;;;;;5028632;28;20041;-79
2022/05/03 12:42:16;;;;;;;11.30;4.28;;;13.90;99.90;;;;;;5028047;28;20048;-77
2022/05/03 12:44:54;;;;;;;10.35;5.35;;;13.80;99.90;;;;;;5026976;28;20111;-78
2022/05/03 12:47:22;;;;;;;11.25;4.47;;;13.70;99.90;;;;;;5029422;28;20132;-77
2022/05/03 12:49:47;;;;;;;13.98;5.07;;;13.80;99.90;;;;;;5027334;28;20103;-77
2022/05/03 12:52:13;;;;;;;12.10;4.45;;;13.80;99.90;;;;;;5011441;28;20494;-78
2022/05/03 12:54:41;;;;;;;10.40;4.00;;;13.90;99.90;;;;;;5017593;28;20087;-78
2022/05/03 12:59:51;;;;;;;7.95;3.53;;;14.10;99.90;;;;;;5045775;28;20060;-78
2022/05/03 13:02:17;;;;;;;10.20;3.92;;;14.30;99.90;;;;;;5011113;28;20084;-80
2022/05/03 13:04:46;;;;;;;7.68;3.75;;;14.50;99.90;;;;;;5055267;22;20040;-77
2022/05/03 13:07:12;;;;;;;11.57;5.03;;;14.60;99.90;;;;;;5025317;28;20034;-76
2022/05/03 13:09:38;;;;;;;6.15;3.47;;;14.80;99.90;;;;;;5018449;28;20048;-76
2022/05/03 13:12:11;;;;;;;12.63;4.22;;;14.80;99.90;;;;;;5025522;28;20041;-76
2022/05/03 13:14:38;;;;;;;7.13;3.38;;;14.90;99.90;;;;;;5015354;28;20079;-76
2022/05/03 13:17:05;;;;;;;7.13;3.47;;;15.00;99.90;;;;;;5011420;28;20498;-76
2022/05/03 13:19:30;;;;;;;7.88;3.15;;;15.10;99.90;;;;;;5007681;28;20141;-76
2022/05/03 13:21:57;;;;;;;8.85;3.58;;;15.20;99.40;;;;;;5018993;28;20129;-75
2022/05/03 13:24:26;;;;;;;9.25;3.40;;;15.00;99.90;;;;;;5003380;28;20052;-75
2022/05/03 13:26:52;;;;;;;10.68;3.70;;;15.00;99.00;;;;;;5003383;28;20044;-76
2022/05/03 13:29:21;;;;;;;8.98;2.88;;;14.80;99.90;;;;;;5016536;28;20761;-75
2022/05/03 13:31:59;;;;;;;10.75;3.03;;;14.90;97.50;;;;;;5013057;28;20045;-78
2022/05/03 13:34:25;;;;;;;7.90;3.05;;;14.90;99.90;;;;;;5024169;28;20079;-78
2022/05/03 13:42:22;;;;;;;8.90;3.35;;;15.00;97.50;;;;;;5014635;28;20045;-76
2022/05/03 13:44:52;;;;;;;9.27;3.28;;;14.90;98.50;;;;;;5011244;28;20041;-76
2022/05/03 13:47:18;;;;;;;10.05;2.72;;;15.00;97.10;;;;;;5012579;28;20037;-76
2022/05/03 13:49:48;;;;;;;10.88;2.70;;;15.10;98.10;;;;;;5021783;28;20049;-76
2022/05/03 13:52:13;;;;;;;8.52;2.90;;;15.20;98.00;;;;;;5013626;28;20038;-76
2022/05/03 13:54:39;;;;;;;8.02;2.78;;;15.40;97.80;;;;;;5012645;28;20035;-77